createdAt,value
2023-02-27T00:04:50.571Z,0.81
2023-02-27T00:09:57.865Z,0.76
2023-02-27T00:15:10.137Z,0.64
2023-02-27T00:20:15.818Z,0.54
2023-02-27T00:25:18.771Z,0.48
2023-02-27T00:30:20.985Z,0.46
2023-02-27T00:35:24.522Z,0.51
2023-02-27T00:40:26.683Z,0.56
2023-02-27T00:45:28.625Z,0.67
2023-02-27T00:50:31.222Z,0.76
2023-02-27T00:55:33.692Z,0.84
2023-02-27T01:00:35.908Z,0.92
2023-02-27T01:05:38.054Z,0.99
2023-02-27T01:10:39.975Z,1.03
2023-02-27T01:15:42.023Z,1.09
2023-02-27T01:20:44.337Z,1.13
2023-02-27T01:25:49.096Z,1.18
2023-02-27T01:30:51.201Z,1.20
2023-02-27T01:35:53.369Z,1.25
2023-02-27T01:40:57.432Z,1.25
2023-02-27T01:46:00.981Z,1.27
2023-02-27T01:51:08.889Z,1.31
2023-02-27T01:56:16.644Z,1.35
2023-02-27T02:01:20.399Z,1.32
2023-02-27T02:06:23.629Z,1.37
2023-02-27T02:11:27.693Z,1.42
2023-02-27T02:16:44.123Z,1.40
2023-02-27T02:22:09.184Z,1.43
2023-02-27T02:27:40.269Z,1.41
2023-02-27T02:33:01.213Z,1.33
2023-02-27T02:38:47.660Z,1.31
2023-02-27T02:44:25.612Z,1.40
2023-02-27T02:50:00.797Z,1.37
2023-02-27T02:55:32.932Z,1.41
2023-02-27T03:00:40.571Z,1.52
2023-02-27T03:05:51.803Z,1.46
2023-02-27T03:11:01.004Z,1.43
2023-02-27T03:16:53.868Z,1.39
2023-02-27T03:22:02.806Z,1.36
2023-02-27T03:27:08.558Z,1.36
2023-02-27T03:32:22.947Z,1.34
2023-02-27T03:37:45.893Z,1.31
2023-02-27T03:42:57.281Z,1.32
2023-02-27T03:48:22.544Z,1.32
2023-02-27T03:53:49.786Z,1.33
2023-02-27T03:58:53.584Z,1.30
2023-02-27T04:04:04.928Z,1.29
2023-02-27T04:09:48.680Z,1.21
2023-02-27T04:14:59.772Z,1.18
2023-02-27T04:20:35.671Z,1.18
2023-02-27T04:26:15.267Z,1.17
2023-02-27T04:31:19.316Z,1.16
2023-02-27T04:36:35.053Z,1.15
2023-02-27T04:41:52.728Z,1.13
2023-02-27T04:46:57.179Z,1.11
2023-02-27T04:52:13.085Z,1.13
2023-02-27T04:57:22.659Z,1.10
2023-02-27T05:02:52.005Z,1.12
2023-02-27T05:08:02.403Z,1.14
2023-02-27T05:13:30.414Z,1.13
2023-02-27T05:18:32.717Z,1.16
2023-02-27T05:23:49.088Z,1.17
2023-02-27T05:29:27.692Z,1.11
2023-02-27T05:34:58.483Z,1.16
2023-02-27T05:40:08.490Z,1.20
2023-02-27T05:45:20.303Z,1.23
2023-02-27T05:50:30.826Z,1.24
2023-02-27T05:55:47.279Z,1.25
2023-02-27T06:01:02.298Z,1.23
2023-02-27T06:06:13.674Z,1.23
2023-02-27T06:11:17.877Z,1.29
2023-02-27T06:16:20.336Z,1.36
2023-02-27T06:21:22.584Z,1.24
2023-02-27T06:26:24.799Z,1.30
2023-02-27T06:31:26.994Z,1.33
2023-02-27T06:36:30.330Z,1.34
2023-02-27T06:41:32.351Z,1.32
2023-02-27T06:46:34.377Z,1.36
2023-02-27T06:51:36.964Z,1.43
2023-02-27T06:56:39.477Z,1.47
2023-02-27T07:01:41.833Z,1.54
2023-02-27T07:07:32.681Z,1.62
2023-02-27T07:12:08.075Z,1.77
2023-02-27T07:17:11.071Z,2.04
2023-02-27T07:22:15.705Z,2.22
2023-02-27T07:27:18.721Z,2.40
2023-02-27T07:32:27.511Z,2.52
2023-02-27T07:37:30.256Z,2.60
2023-02-27T07:42:33.165Z,2.64
2023-02-27T07:47:41.596Z,2.64
2023-02-27T07:52:49.714Z,2.69
2023-02-27T07:57:56.022Z,2.79
2023-02-27T08:02:58.736Z,2.90
2023-02-27T08:08:04.227Z,3.02
2023-02-27T08:13:06.504Z,3.20
2023-02-27T08:18:08.866Z,3.38
2023-02-27T08:23:12.092Z,3.45
2023-02-27T08:28:15.014Z,3.56
2023-02-27T08:33:21.021Z,3.59
2023-02-27T08:38:28.621Z,3.67
2023-02-27T08:43:31.608Z,3.62
2023-02-27T08:48:34.292Z,3.57
2023-02-27T08:53:36.618Z,3.48
2023-02-27T08:58:39.475Z,3.40
2023-02-27T09:03:49.475Z,3.42
2023-02-27T09:09:06.684Z,3.48
2023-02-27T09:14:20.052Z,3.51
2023-02-27T09:19:27.958Z,3.60
2023-02-27T09:24:33.515Z,3.65
2023-02-27T09:29:38.303Z,3.92
2023-02-27T09:34:40.507Z,4.35
2023-02-27T09:39:45.338Z,4.87
2023-02-27T09:45:04.080Z,5.31
2023-02-27T09:50:45.049Z,5.55
2023-02-27T09:55:51.547Z,5.76
2023-02-27T10:01:10.194Z,5.96
2023-02-27T10:06:44.069Z,6.15
2023-02-27T10:11:56.797Z,6.15
2023-02-27T10:17:03.862Z,5.96
2023-02-27T10:22:12.413Z,5.62
2023-02-27T10:27:22.805Z,5.26
2023-02-27T10:32:30.931Z,4.96
2023-02-27T10:37:37.301Z,4.85
2023-02-27T10:42:42.152Z,4.84
2023-02-27T10:47:45.498Z,4.92
2023-02-27T10:52:53.816Z,5.16
2023-02-27T10:57:58.403Z,4.98
2023-02-27T11:03:01.965Z,4.71
2023-02-27T11:08:21.467Z,4.33
2023-02-27T11:13:26.076Z,4.05
2023-02-27T11:18:30.550Z,3.88
2023-02-27T11:23:34.053Z,3.90
2023-02-27T11:28:36.552Z,4.19
2023-02-27T11:33:40.364Z,4.43
2023-02-27T11:38:50.354Z,4.59
2023-02-27T11:43:53.407Z,4.60
2023-02-27T11:49:07.218Z,4.42
2023-02-27T11:54:32.553Z,4.36
2023-02-27T11:59:41.824Z,4.63
2023-02-27T12:04:52.407Z,4.78
2023-02-27T12:10:11.792Z,4.58
2023-02-27T12:15:24.539Z,4.39
2023-02-27T12:20:58.684Z,4.19
2023-02-27T12:26:25.351Z,4.24
2023-02-27T12:31:32.646Z,4.47
2023-02-27T12:36:35.314Z,4.89
2023-02-27T12:41:52.496Z,5.47
2023-02-27T12:46:57.540Z,5.44
2023-02-27T12:52:10.275Z,5.01
2023-02-27T12:57:28.463Z,4.44
2023-02-27T13:02:44.982Z,4.12
2023-02-27T13:08:16.458Z,4.10
2023-02-27T13:13:26.332Z,4.28
2023-02-27T13:18:37.525Z,4.54
2023-02-27T13:24:03.071Z,4.93
2023-02-27T13:29:06.485Z,5.24
2023-02-27T13:34:17.742Z,5.18
2023-02-27T13:39:53.556Z,5.08
2023-02-27T13:45:03.185Z,4.90
2023-02-27T13:50:24.977Z,5.02
2023-02-27T13:55:31.133Z,4.98
2023-02-27T14:00:37.968Z,4.36
2023-02-27T14:05:44.799Z,3.98
2023-02-27T14:11:16.740Z,3.79
2023-02-27T14:16:54.645Z,3.68
2023-02-27T14:22:10.885Z,3.66
2023-02-27T14:27:25.178Z,3.74
2023-02-27T14:32:33.533Z,3.81
2023-02-27T14:37:38.253Z,3.88
2023-02-27T14:42:59.439Z,3.94
2023-02-27T14:48:02.008Z,4.04
2023-02-27T14:53:06.447Z,4.06
2023-02-27T14:58:23.703Z,4.14
2023-02-27T15:03:57.517Z,4.15
2023-02-27T15:09:00.054Z,4.06
2023-02-27T15:14:06.399Z,3.95
2023-02-27T15:19:13.421Z,3.94
2023-02-27T15:24:23.665Z,3.69
2023-02-27T15:29:37.435Z,3.22
2023-02-27T15:34:44.006Z,3.17
2023-02-27T15:39:47.106Z,3.26
2023-02-27T15:44:50.690Z,3.25
2023-02-27T15:50:01.662Z,3.23
2023-02-27T15:55:10.643Z,3.25
2023-02-27T16:00:16.807Z,3.04
2023-02-27T16:05:26.520Z,2.54
2023-02-27T16:10:35.512Z,2.45
2023-02-27T16:15:39.938Z,2.41
2023-02-27T16:20:54.851Z,2.34
2023-02-27T16:26:27.331Z,2.27
2023-02-27T16:31:46.746Z,2.24
2023-02-27T16:36:58.115Z,2.11
2023-02-27T16:42:01.816Z,2.11
2023-02-27T16:47:04.061Z,2.11
2023-02-27T16:52:11.502Z,2.08
2023-02-27T16:57:15.063Z,2.03
2023-02-27T17:02:17.233Z,1.98
2023-02-27T17:07:19.945Z,1.90
2023-02-27T17:12:22.276Z,1.82
2023-02-27T17:17:24.252Z,1.78
2023-02-27T17:22:26.668Z,1.77
2023-02-27T17:27:28.651Z,1.83
2023-02-27T17:32:31.567Z,1.87
2023-02-27T17:37:34.404Z,1.95
2023-02-27T17:42:37.155Z,2.03
2023-02-27T17:47:39.204Z,2.07
2023-02-27T17:52:41.058Z,2.09
2023-02-27T17:57:43.939Z,2.10
2023-02-27T18:02:47.922Z,1.99
2023-02-27T18:07:50.173Z,1.92
2023-02-27T18:12:52.630Z,1.83
2023-02-27T18:17:54.813Z,1.72
2023-02-27T18:22:57.487Z,1.61
2023-02-27T18:28:01.815Z,1.54
2023-02-27T18:33:04.146Z,1.55
2023-02-27T18:38:06.748Z,1.53
2023-02-27T18:43:10.614Z,1.50
2023-02-27T18:48:15.934Z,1.49
2023-02-27T18:53:18.920Z,1.50
2023-02-27T18:58:21.439Z,1.54
2023-02-27T19:03:25.418Z,1.59
2023-02-27T19:08:29.355Z,1.67
2023-02-27T19:13:31.216Z,1.69
2023-02-27T19:18:33.490Z,1.69
2023-02-27T19:23:36.539Z,1.74
2023-02-27T19:28:38.500Z,1.74
2023-02-27T19:33:41.038Z,1.79
2023-02-27T19:38:43.765Z,1.77
2023-02-27T19:43:46.959Z,1.80
2023-02-27T19:48:50.197Z,1.82
2023-02-27T19:53:53.824Z,1.86
2023-02-27T19:58:56.215Z,1.73
2023-02-27T20:04:00.337Z,1.76
2023-02-27T20:09:02.744Z,1.75
2023-02-27T20:14:05.191Z,1.75
2023-02-27T20:19:10.976Z,1.68
2023-02-27T20:24:14.625Z,1.65
2023-02-27T20:29:22.987Z,1.60
2023-02-27T20:34:26.439Z,1.52
2023-02-27T20:39:29.128Z,1.51
2023-02-27T20:44:30.930Z,1.51
2023-02-27T20:49:32.802Z,1.56
2023-02-27T20:54:34.645Z,1.61
2023-02-27T20:59:36.754Z,1.67
2023-02-27T21:04:47.789Z,1.71
2023-02-27T21:09:50.899Z,1.72
2023-02-27T21:14:52.757Z,1.72
2023-02-27T21:19:54.760Z,1.71
2023-02-27T21:24:57.806Z,1.71
2023-02-27T21:29:59.970Z,1.72
2023-02-27T21:35:01.832Z,1.74
2023-02-27T21:40:04.967Z,1.75
2023-02-27T21:45:07.801Z,1.66
2023-02-27T21:50:14.660Z,1.68
2023-02-27T21:55:17.620Z,1.72
2023-02-27T22:00:20.532Z,1.76
2023-02-27T22:05:22.692Z,1.83
2023-02-27T22:10:25.712Z,1.78
2023-02-27T22:15:32.118Z,1.79
2023-02-27T22:20:35.646Z,1.71
2023-02-27T22:25:39.804Z,1.77
2023-02-27T22:30:42.198Z,1.74
2023-02-27T22:35:44.571Z,1.76
2023-02-27T22:40:46.739Z,1.81
2023-02-27T22:45:52.441Z,1.72
2023-02-27T22:51:11.332Z,1.88
2023-02-27T22:56:16.548Z,1.91
2023-02-27T23:01:28.874Z,1.92
2023-02-27T23:06:35.431Z,1.92
2023-02-27T23:11:37.917Z,1.86
2023-02-27T23:16:45.620Z,1.88
2023-02-27T23:21:48.462Z,1.84
2023-02-27T23:26:52.263Z,1.90
2023-02-27T23:31:54.435Z,1.87
2023-02-27T23:36:56.839Z,1.91
2023-02-27T23:41:58.821Z,1.88
2023-02-27T23:47:03.945Z,1.90
2023-02-27T23:52:05.976Z,1.89
2023-02-27T23:57:08.960Z,1.88
